Time;durP1;ratioP1;P1;durP2;ratioP2;P2;SDS_P1;SDS_P2;PMS_P1;PMS_P2;Temp;Humidity;BMP_temperature;BMP_pressure;BME280_temperature;BME280_humidity;BME280_pressure;Samples;Min_cycle;Max_cycle;Signal;HPM_P1;HPM_P2
2022/12/08 00:01:33;;;;;;;12.50;7.50;;;;;;;2.89;99.79;101036.97;4953164;28;20043;-68
2022/12/08 00:04:03;;;;;;;12.23;7.57;;;;;;;2.86;99.93;101029.16;4953167;28;20051;-68
2022/12/08 00:09:36;;;;;;;14.52;9.00;;;;;;;2.83;99.89;101017.00;4953314;28;20031;-68
2022/12/08 00:12:08;;;;;;;12.52;9.27;;;;;;;2.82;100.00;101015.25;4954529;28;20035;-68
2022/12/08 00:14:42;;;;;;;14.27;9.93;;;;;;;2.86;100.00;101011.78;4952008;28;20039;-68
2022/12/08 00:17:14;;;;;;;15.07;10.85;;;;;;;2.89;100.00;101006.59;4952691;28;20058;-69
2022/12/08 00:19:42;;;;;;;15.52;10.60;;;;;;;2.95;100.00;101006.59;4951629;28;20044;-69
2022/12/08 00:22:11;;;;;;;14.32;11.40;;;;;;;2.99;100.00;100988.38;4946427;28;20051;-69
2022/12/08 00:24:42;;;;;;;17.95;11.90;;;;;;;3.03;100.00;100991.00;4953413;28;20052;-69
2022/12/08 00:27:14;;;;;;;19.48;12.57;;;;;;;3.07;100.00;100989.28;4947222;28;20052;-69
2022/12/08 00:29:44;;;;;;;21.52;13.68;;;;;;;3.10;100.00;100982.34;4953550;28;20048;-70
2022/12/08 00:32:12;;;;;;;24.23;14.30;;;;;;;3.14;100.00;100979.75;4944635;28;20043;-70
2022/12/08 00:34:39;;;;;;;18.83;14.32;;;;;;;3.15;100.00;100982.38;4953798;28;20048;-70
2022/12/08 00:37:06;;;;;;;26.60;17.15;;;;;;;3.19;100.00;100983.25;4952335;28;20039;-70
2022/12/08 00:39:33;;;;;;;27.23;17.27;;;;;;;3.22;100.00;100980.63;4954594;28;20044;-70
2022/12/08 00:42:12;;;;;;;25.67;17.65;;;;;;;3.22;100.00;100976.31;4952475;28;20048;-70
2022/12/08 00:44:42;;;;;;;26.60;18.50;;;;;;;3.24;100.00;100977.19;4953352;28;20094;-70
2022/12/08 00:47:11;;;;;;;28.73;18.90;;;;;;;3.25;100.00;100972.81;4950769;28;20817;-69
2022/12/08 00:49:39;;;;;;;29.17;18.48;;;;;;;3.25;100.00;100967.63;4953184;28;20122;-70
2022/12/08 00:52:07;;;;;;;30.85;19.90;;;;;;;3.25;100.00;100962.41;4962724;28;20048;-70
2022/12/08 00:54:34;;;;;;;26.73;19.95;;;;;;;3.25;100.00;100959.81;4951381;28;20043;-70
2022/12/08 00:57:05;;;;;;;30.15;19.10;;;;;;;3.26;100.00;100962.41;4953096;28;20036;-70
2022/12/08 00:59:32;;;;;;;27.85;19.85;;;;;;;3.26;100.00;100953.72;4953506;28;20044;-70
2022/12/08 01:01:59;;;;;;;29.30;20.60;;;;;;;3.28;100.00;100949.41;4962395;28;20798;-70
2022/12/08 01:04:26;;;;;;;31.08;20.80;;;;;;;3.31;100.00;100957.19;4953353;28;20048;-70
2022/12/08 01:06:53;;;;;;;28.60;21.05;;;;;;;3.31;100.00;100961.56;4952988;28;20043;-70
2022/12/08 01:09:20;;;;;;;29.65;20.77;;;;;;;3.33;100.00;100957.22;4953084;28;20047;-70
2022/12/08 01:11:49;;;;;;;31.63;20.73;;;;;;;3.32;100.00;100953.72;4953423;28;20376;-69
2022/12/08 01:14:16;;;;;;;31.42;21.58;;;;;;;3.33;100.00;100954.59;4952748;28;20055;-70
2022/12/08 01:16:43;;;;;;;31.92;21.58;;;;;;;3.34;100.00;100954.59;4953361;28;20058;-70
2022/12/08 01:19:13;;;;;;;30.23;22.35;;;;;;;3.35;100.00;100952.88;4950480;28;20067;-70
2022/12/08 01:21:42;;;;;;;33.00;22.35;;;;;;;3.34;100.00;100946.78;4951722;28;20063;-70
2022/12/08 01:24:19;;;;;;;30.92;21.25;;;;;;;3.34;100.00;100952.00;4952316;28;20050;-70
2022/12/08 01:26:48;;;;;;;30.63;22.58;;;;;;;3.37;100.00;100951.13;4952303;28;20537;-71
2022/12/08 01:29:16;;;;;;;30.67;22.08;;;;;;;3.37;100.00;100951.13;4952598;28;20489;-71
2022/12/08 01:31:43;;;;;;;28.40;22.63;;;;;;;3.37;99.93;100952.00;4952481;28;20048;-71
2022/12/08 01:34:11;;;;;;;29.17;21.38;;;;;;;3.41;100.00;100955.47;4951655;28;20106;-71
2022/12/08 01:36:38;;;;;;;29.10;21.42;;;;;;;3.41;100.00;100945.91;4940563;28;20056;-70
2022/12/08 01:39:13;;;;;;;28.35;20.80;;;;;;;3.41;99.93;100942.44;4951674;28;20039;-70
2022/12/08 01:41:42;;;;;;;27.30;21.15;;;;;;;3.43;99.88;100948.53;4952368;28;20099;-69
2022/12/08 01:44:09;;;;;;;27.55;20.67;;;;;;;3.42;100.00;100946.81;4949096;28;20040;-69
2022/12/08 01:46:43;;;;;;;29.40;21.40;;;;;;;3.41;99.61;100943.31;4952649;28;20050;-69
2022/12/08 01:49:18;;;;;;;28.55;20.98;;;;;;;3.40;99.77;100933.78;4951700;28;20560;-70
2022/12/08 01:51:53;;;;;;;29.10;20.58;;;;;;;3.41;99.80;100939.84;4951968;28;20048;-70
2022/12/08 01:54:28;;;;;;;30.98;20.40;;;;;;;3.39;99.57;100924.22;4950672;28;20051;-70
2022/12/08 01:57:07;;;;;;;28.50;20.70;;;;;;;3.37;99.68;100923.34;4951501;28;20054;-70
2022/12/08 01:59:42;;;;;;;27.70;20.55;;;;;;;3.36;99.74;100920.72;4933575;28;20119;-70
2022/12/08 02:02:11;;;;;;;28.45;20.60;;;;;;;3.34;99.96;100925.94;4951431;28;20812;-70
2022/12/08 02:04:38;;;;;;;26.45;19.67;;;;;;;3.34;99.88;100919.88;4942605;28;20043;-71
2022/12/08 02:07:08;;;;;;;27.77;20.73;;;;;;;3.33;99.85;100918.97;4950716;28;20044;-71
2022/12/08 02:09:38;;;;;;;29.10;20.63;;;;;;;3.33;99.88;100920.72;4952197;28;20081;-71
2022/12/08 02:12:06;;;;;;;27.23;20.65;;;;;;;3.32;99.75;100911.19;4951843;28;20044;-70
2022/12/08 02:14:34;;;;;;;29.73;21.73;;;;;;;3.32;99.84;100906.81;4952057;28;20054;-71
2022/12/08 02:17:33;;;;;;;28.85;20.40;;;;;;;3.33;99.90;100902.50;4950235;28;20046;-71
2022/12/08 02:20:26;;;;;;;31.00;21.02;;;;;;;3.33;100.00;100895.53;4938009;28;20048;-71
2022/12/08 02:23:22;;;;;;;27.42;20.05;;;;;;;3.33;100.00;100895.53;4952045;28;20053;-69
2022/12/08 02:26:30;;;;;;;29.05;20.35;;;;;;;3.33;99.94;100889.47;4943941;28;20044;-69
2022/12/08 02:29:30;;;;;;;26.20;20.33;;;;;;;3.31;99.87;100879.00;4950887;28;20043;-69
2022/12/08 02:32:43;;;;;;;27.23;19.95;;;;;;;3.33;99.68;100879.03;4952014;28;20051;-69
2022/12/08 02:35:29;;;;;;;27.80;20.27;;;;;;;3.31;99.85;100876.41;4936646;28;20071;-69
2022/12/08 02:38:16;;;;;;;28.88;19.50;;;;;;;3.32;99.93;100874.69;4950228;28;20498;-69
2022/12/08 02:41:17;;;;;;;29.27;19.42;;;;;;;3.34;99.93;100872.97;4950405;28;20055;-69
2022/12/08 02:43:53;;;;;;;30.15;19.55;;;;;;;3.35;100.00;100875.56;4938893;28;20059;-69
2022/12/08 02:46:29;;;;;;;26.50;18.63;;;;;;;3.37;100.00;100863.41;4950087;28;20132;-69
2022/12/08 02:48:59;;;;;;;27.05;19.02;;;;;;;3.38;100.00;100864.25;4951967;28;20047;-69
2022/12/08 02:51:26;;;;;;;23.33;17.30;;;;;;;3.40;100.00;100857.31;4951163;28;20063;-69
2022/12/08 02:53:54;;;;;;;21.77;17.30;;;;;;;3.40;99.80;100852.97;4948101;28;20047;-69
2022/12/08 02:56:52;;;;;;;25.00;18.70;;;;;;;3.39;99.75;100846.03;4951572;28;20094;-69
2022/12/08 02:59:31;;;;;;;27.35;17.67;;;;;;;3.39;99.84;100846.03;4951310;28;20044;-69
2022/12/08 03:02:23;;;;;;;25.20;17.05;;;;;;;3.36;99.70;100840.81;4948942;28;20453;-69
2022/12/08 03:05:31;;;;;;;24.73;17.55;;;;;;;3.36;99.77;100842.53;4942755;28;20055;-69
2022/12/08 03:08:24;;;;;;;21.35;15.95;;;;;;;3.36;99.55;100839.91;4890427;29;20052;-69
2022/12/08 03:11:08;;;;;;;21.38;16.00;;;;;;;3.36;99.47;100835.59;4948219;28;20774;-72
2022/12/08 03:13:50;;;;;;;25.25;17.15;;;;;;;3.34;99.64;100832.13;4951960;28;20099;-71
2022/12/08 03:16:25;;;;;;;21.00;16.65;;;;;;;3.32;99.79;100822.56;4949817;28;20044;-72
2022/12/08 03:19:08;;;;;;;25.15;17.58;;;;;;;3.36;99.85;100832.09;4943357;28;20197;-71
2022/12/08 03:21:38;;;;;;;24.90;17.75;;;;;;;3.36;99.61;100832.09;4950115;28;20059;-68
2022/12/08 03:24:08;;;;;;;22.80;17.65;;;;;;;3.37;99.80;100819.09;4951994;28;20355;-69
2022/12/08 03:26:45;;;;;;;22.75;16.38;;;;;;;3.40;99.54;100832.13;4949741;28;20036;-69
2022/12/08 03:29:13;;;;;;;24.00;17.17;;;;;;;3.39;99.39;100830.38;4948747;28;20044;-69
2022/12/08 03:31:50;;;;;;;23.27;17.20;;;;;;;3.40;99.41;100820.81;4952582;28;20088;-69
2022/12/08 03:34:20;;;;;;;23.23;16.80;;;;;;;3.40;99.68;100820.81;4951002;28;20570;-69
2022/12/08 03:36:47;;;;;;;21.95;16.23;;;;;;;3.39;99.61;100812.16;4949820;28;20083;-69
2022/12/08 03:39:14;;;;;;;21.88;16.13;;;;;;;3.42;99.76;100821.69;4966667;28;20123;-69
2022/12/08 03:41:41;;;;;;;22.73;15.63;;;;;;;3.43;99.65;100810.41;4955847;28;20114;-69
2022/12/08 03:44:08;;;;;;;23.02;15.10;;;;;;;3.45;99.74;100820.81;4954606;28;20048;-68
2022/12/08 03:46:35;;;;;;;22.25;15.13;;;;;;;3.47;99.84;100811.25;4952753;28;20059;-68
2022/12/08 03:49:02;;;;;;;20.70;14.23;;;;;;;3.47;99.42;100806.91;4953868;28;20494;-68
2022/12/08 03:51:29;;;;;;;20.92;14.15;;;;;;;3.47;98.91;100808.66;4952981;28;20366;-68
2022/12/08 03:53:57;;;;;;;16.67;12.93;;;;;;;3.49;98.96;100802.56;4955063;28;20062;-68
2022/12/08 03:56:32;;;;;;;18.48;13.18;;;;;;;3.48;98.77;100800.81;4953297;28;20142;-68
2022/12/08 03:59:00;;;;;;;16.05;11.77;;;;;;;3.46;98.40;100807.78;4954394;28;20046;-68
2022/12/08 04:01:27;;;;;;;16.40;12.73;;;;;;;3.42;98.56;100809.50;4952784;28;20051;-69
2022/12/08 04:03:54;;;;;;;14.63;10.88;;;;;;;3.40;98.84;100794.75;4953632;28;20946;-69
2022/12/08 04:06:22;;;;;;;14.90;11.43;;;;;;;3.41;98.77;100802.56;4953307;28;20043;-69
2022/12/08 04:08:51;;;;;;;16.50;11.00;;;;;;;3.40;98.97;100800.84;4953318;28;20047;-69
2022/12/08 04:11:19;;;;;;;15.02;10.18;;;;;;;3.39;98.68;100790.41;4952573;28;20111;-69
2022/12/08 04:13:46;;;;;;;14.63;10.27;;;;;;;3.36;98.70;100786.09;4939944;28;20044;-69
2022/12/08 04:16:18;;;;;;;15.95;9.98;;;;;;;3.37;98.90;100784.31;4952430;28;20043;-69
2022/12/08 04:18:45;;;;;;;11.18;8.90;;;;;;;3.35;98.93;100788.69;4945510;28;20051;-69
2022/12/08 04:21:14;;;;;;;13.50;8.75;;;;;;;3.36;99.04;100786.09;4952988;28;20108;-67
2022/12/08 04:23:42;;;;;;;9.50;7.65;;;;;;;3.32;98.99;100781.72;4964385;28;20039;-67
2022/12/08 04:26:09;;;;;;;10.13;7.57;;;;;;;3.33;98.89;100788.69;4959927;28;20497;-68
2022/12/08 04:28:37;;;;;;;10.25;7.53;;;;;;;3.32;98.94;100786.94;4952127;28;20054;-68
2022/12/08 04:31:05;;;;;;;10.20;7.40;;;;;;;3.32;98.90;100778.28;4945957;28;20466;-67
2022/12/08 04:33:34;;;;;;;8.70;6.95;;;;;;;3.32;98.70;100781.72;4953741;28;20514;-67
2022/12/08 04:36:04;;;;;;;11.27;7.82;;;;;;;3.30;98.66;100785.22;4953130;28;20099;-67
2022/12/08 04:38:32;;;;;;;9.32;6.10;;;;;;;3.26;98.84;100792.16;4952866;28;20502;-67
2022/12/08 04:41:00;;;;;;;9.25;6.55;;;;;;;3.23;98.53;100789.56;4952640;28;20044;-67
2022/12/08 04:43:28;;;;;;;8.30;6.25;;;;;;;3.21;98.48;100783.47;4953171;28;20094;-68
2022/12/08 04:45:55;;;;;;;10.02;7.03;;;;;;;3.19;98.76;100780.03;4953039;28;20050;-67
2022/12/08 04:48:22;;;;;;;8.90;6.47;;;;;;;3.19;99.13;100778.28;4952727;28;20056;-67
2022/12/08 04:50:50;;;;;;;7.57;6.05;;;;;;;3.19;99.06;100769.59;4952701;28;20040;-67
2022/12/08 04:53:18;;;;;;;9.20;5.60;;;;;;;3.17;99.01;100777.41;4949320;28;20052;-67
2022/12/08 04:55:47;;;;;;;7.50;5.22;;;;;;;3.15;98.82;100768.75;4952514;28;20047;-67
2022/12/08 04:58:18;;;;;;;7.95;5.85;;;;;;;3.15;99.27;100767.88;4951707;28;20131;-67
2022/12/08 05:00:47;;;;;;;6.55;5.32;;;;;;;3.15;99.25;100763.53;4951783;28;20437;-68
2022/12/08 05:03:15;;;;;;;9.93;6.50;;;;;;;3.16;99.39;100759.19;4952224;28;20055;-68
2022/12/08 05:05:43;;;;;;;10.20;7.20;;;;;;;3.18;99.59;100760.06;4951240;28;20075;-67
2022/12/08 05:08:10;;;;;;;10.30;7.30;;;;;;;3.21;99.88;100758.31;4951806;28;20051;-69
2022/12/08 05:10:38;;;;;;;11.95;7.60;;;;;;;3.24;99.93;100762.63;4952825;28;20125;-69
2022/12/08 05:13:05;;;;;;;16.88;13.98;;;;;;;3.26;99.98;100763.50;4941805;28;20043;-70
2022/12/08 05:15:33;;;;;;;10.52;8.13;;;;;;;3.25;99.66;100770.47;4951672;28;20052;-69
2022/12/08 05:18:06;;;;;;;11.57;7.57;;;;;;;3.25;99.52;100772.19;4951991;28;20803;-69
2022/12/08 05:20:33;;;;;;;12.38;7.85;;;;;;;3.24;99.55;100768.72;4951810;28;20430;-71
2022/12/08 05:23:00;;;;;;;9.93;7.28;;;;;;;3.23;99.92;100767.00;4951567;28;20040;-71
2022/12/08 05:25:28;;;;;;;9.52;7.25;;;;;;;3.22;99.61;100765.25;4951876;28;20115;-71
2022/12/08 05:27:55;;;;;;;9.13;6.10;;;;;;;3.23;99.59;100761.78;4951034;28;20505;-69
2022/12/08 05:30:42;;;;;;;8.48;5.55;;;;;;;3.21;99.33;100760.91;4949236;28;20572;-70
2022/12/08 05:33:09;;;;;;;6.40;5.65;;;;;;;3.19;99.53;100748.75;4950291;28;20058;-70
2022/12/08 05:35:36;;;;;;;7.50;5.70;;;;;;;3.19;99.45;100748.75;4951967;28;20426;-69
2022/12/08 05:38:05;;;;;;;6.47;4.85;;;;;;;3.17;99.22;100753.97;4951364;28;20052;-69
2022/12/08 05:40:32;;;;;;;6.25;4.57;;;;;;;3.15;98.83;100747.03;4950753;28;20043;-68
2022/12/08 05:42:59;;;;;;;7.63;5.18;;;;;;;3.14;99.18;100747.88;4951043;28;20347;-68
2022/12/08 05:45:26;;;;;;;6.90;5.18;;;;;;;3.19;99.70;100746.16;4949657;28;20040;-68
2022/12/08 05:47:53;;;;;;;8.27;6.05;;;;;;;3.30;100.00;100747.00;4946378;28;20040;-68
2022/12/08 05:50:21;;;;;;;8.93;6.03;;;;;;;3.39;100.00;100740.91;4949594;28;20044;-68
2022/12/08 05:52:48;;;;;;;8.13;5.88;;;;;;;3.46;100.00;100739.16;4944354;28;20130;-67
2022/12/08 05:55:16;;;;;;;9.50;6.68;;;;;;;3.50;100.00;100743.50;4951345;28;20047;-68
2022/12/08 05:57:43;;;;;;;10.60;7.32;;;;;;;3.56;100.00;100743.47;4951797;28;20054;-68
2022/12/08 06:00:11;;;;;;;10.93;6.40;;;;;;;3.64;100.00;100746.06;4951862;28;20044;-68
2022/12/08 06:02:38;;;;;;;10.48;7.15;;;;;;;3.72;100.00;100733.84;4946346;28;20036;-68
2022/12/08 06:05:06;;;;;;;13.45;7.88;;;;;;;3.78;100.00;100731.22;4942421;28;20048;-67
2022/12/08 06:07:33;;;;;;;12.65;8.35;;;;;;;3.83;99.77;100734.69;4946472;28;20080;-68
2022/12/08 06:10:01;;;;;;;11.35;7.88;;;;;;;3.89;99.85;100731.19;4944174;28;20040;-68
2022/12/08 06:12:29;;;;;;;13.38;8.35;;;;;;;3.95;99.76;100732.91;4947475;28;20040;-68
2022/12/08 06:14:56;;;;;;;10.93;8.40;;;;;;;4.03;99.78;100728.50;4942890;28;20051;-68
2022/12/08 06:17:24;;;;;;;11.70;8.68;;;;;;;4.12;99.65;100733.69;4948114;28;20055;-68
2022/12/08 06:19:51;;;;;;;14.70;9.10;;;;;;;4.19;99.45;100724.06;4946833;28;20888;-68
2022/12/08 06:22:18;;;;;;;13.70;10.15;;;;;;;4.19;98.81;100724.06;4940957;28;20138;-68
2022/12/08 06:24:45;;;;;;;16.60;10.70;;;;;;;4.07;98.34;100729.34;4947409;28;20511;-69
2022/12/08 06:27:12;;;;;;;20.48;11.35;;;;;;;3.97;98.36;100736.38;4938319;28;20048;-69
2022/12/08 06:29:40;;;;;;;15.52;9.95;;;;;;;3.87;98.07;100727.72;4938656;28;20537;-67
2022/12/08 06:32:07;;;;;;;13.98;9.60;;;;;;;3.79;97.89;100737.31;4942934;28;20075;-69
2022/12/08 06:34:34;;;;;;;14.35;8.52;;;;;;;3.70;97.84;100726.06;4946294;28;20123;-69
2022/12/08 06:37:01;;;;;;;12.65;7.53;;;;;;;3.62;97.92;100733.00;4926309;28;20054;-69
2022/12/08 06:39:28;;;;;;;10.43;6.70;;;;;;;3.54;97.45;100721.75;4948657;28;20123;-69
2022/12/08 06:44:43;;;;;;;8.25;6.38;;;;;;;3.40;97.57;100727.88;4946197;28;20138;-69
2022/12/08 06:47:10;;;;;;;8.13;6.20;;;;;;;3.36;97.12;100726.13;4942248;28;20044;-68
2022/12/08 06:49:39;;;;;;;9.52;5.97;;;;;;;3.31;97.45;100729.63;4933067;28;20526;-69
2022/12/08 06:52:06;;;;;;;9.40;6.40;;;;;;;3.25;97.47;100734.00;4937263;28;20757;-69
2022/12/08 06:54:33;;;;;;;9.55;6.32;;;;;;;3.23;97.69;100738.34;4936594;28;20693;-69
2022/12/08 06:57:00;;;;;;;10.68;6.80;;;;;;;3.22;98.12;100730.50;4936411;28;20044;-69
2022/12/08 06:59:27;;;;;;;10.23;6.55;;;;;;;3.20;98.10;100721.84;4946901;28;20044;-69
2022/12/08 07:01:54;;;;;;;10.02;6.63;;;;;;;3.17;98.21;100725.28;4946313;28;20115;-69
2022/12/08 07:04:22;;;;;;;10.07;6.85;;;;;;;3.15;98.20;100728.78;4951437;28;20044;-69
2022/12/08 07:06:49;;;;;;;8.68;6.03;;;;;;;3.10;98.32;100721.84;4951791;28;20058;-69
2022/12/08 07:09:16;;;;;;;10.02;6.32;;;;;;;3.11;98.73;100727.94;4952982;28;20050;-69
2022/12/08 07:11:43;;;;;;;9.63;6.15;;;;;;;3.08;98.97;100731.41;4951903;28;20111;-70
2022/12/08 07:14:12;;;;;;;7.75;5.60;;;;;;;3.10;98.90;100728.78;4953534;28;20040;-70
2022/12/08 07:16:39;;;;;;;7.43;5.40;;;;;;;3.09;99.14;100734.88;4955319;28;20047;-70
2022/12/08 07:19:06;;;;;;;9.07;5.78;;;;;;;3.08;99.12;100730.53;4956314;28;20044;-69
2022/12/08 07:21:33;;;;;;;7.20;5.47;;;;;;;3.06;99.18;100727.94;4956150;28;20051;-70
2022/12/08 07:24:01;;;;;;;7.50;5.38;;;;;;;3.06;99.00;100730.53;4956442;28;20549;-69
2022/12/08 07:26:28;;;;;;;7.15;5.40;;;;;;;3.05;99.14;100735.75;4956350;28;20095;-70
2022/12/08 07:28:55;;;;;;;7.93;5.20;;;;;;;3.04;99.27;100726.22;4956193;28;20058;-70
2022/12/08 07:31:24;;;;;;;7.57;5.43;;;;;;;3.03;99.17;100733.13;4955846;28;20490;-70
2022/12/08 07:33:55;;;;;;;8.00;5.65;;;;;;;3.05;99.36;100730.56;4955509;28;20036;-70
2022/12/08 07:36:23;;;;;;;9.63;5.35;;;;;;;3.05;99.49;100733.16;4956095;28;20517;-70
2022/12/08 07:38:52;;;;;;;6.60;5.68;;;;;;;3.08;99.56;100735.72;4956571;28;20056;-70
2022/12/08 07:41:23;;;;;;;8.55;5.72;;;;;;;3.08;99.71;100727.91;4953200;28;20040;-70
2022/12/08 07:43:52;;;;;;;8.35;5.30;;;;;;;3.11;99.58;100726.16;4954351;28;20043;-70
2022/12/08 07:46:22;;;;;;;7.35;5.05;;;;;;;3.13;99.77;100725.31;4954288;28;20048;-70
2022/12/08 07:48:52;;;;;;;8.30;5.32;;;;;;;3.14;100.00;100730.53;4955271;28;20047;-69
2022/12/08 07:51:19;;;;;;;8.80;5.05;;;;;;;3.17;99.73;100733.13;4955272;28;20067;-69
2022/12/08 07:53:48;;;;;;;7.30;4.95;;;;;;;3.19;99.88;100728.78;4954814;28;20039;-69
2022/12/08 07:56:21;;;;;;;7.90;5.13;;;;;;;3.19;99.94;100723.56;4955408;28;20150;-69
2022/12/08 07:58:49;;;;;;;8.43;4.72;;;;;;;3.20;99.96;100719.25;4955739;28;20043;-69
2022/12/08 08:01:28;;;;;;;7.80;5.00;;;;;;;3.23;100.00;100724.41;4955793;28;20048;-69
2022/12/08 08:04:00;;;;;;;6.20;4.20;;;;;;;3.25;100.00;100722.69;4955009;28;20050;-69
2022/12/08 08:06:27;;;;;;;8.32;4.60;;;;;;;3.29;100.00;100720.94;4956202;28;20502;-69
2022/12/08 08:08:54;;;;;;;9.13;4.10;;;;;;;3.31;100.00;100734.84;4955741;28;20047;-69
2022/12/08 08:11:22;;;;;;;5.90;4.78;;;;;;;3.34;100.00;100729.63;4955462;28;20044;-69
2022/12/08 08:13:50;;;;;;;6.15;5.00;;;;;;;3.32;100.00;100729.63;4956042;28;20505;-69
2022/12/08 08:16:19;;;;;;;8.82;4.22;;;;;;;3.32;99.46;100724.41;4955409;28;20099;-69
2022/12/08 08:18:49;;;;;;;8.07;4.80;;;;;;;3.32;100.00;100727.00;4954451;28;20486;-70
2022/12/08 08:21:18;;;;;;;9.95;4.57;;;;;;;3.35;99.90;100729.63;4954992;28;20098;-69
2022/12/08 08:24:05;;;;;;;6.72;4.15;;;;;;;3.36;100.00;100723.53;4956027;28;20096;-70
2022/12/08 08:26:33;;;;;;;7.82;4.18;;;;;;;3.38;99.97;100732.22;4955809;28;20122;-70
2022/12/08 08:29:00;;;;;;;7.13;4.60;;;;;;;3.39;99.74;100726.16;4955085;28;20052;-70
2022/12/08 08:31:27;;;;;;;7.65;4.68;;;;;;;3.39;99.86;100726.16;4955364;28;20103;-70
2022/12/08 08:33:55;;;;;;;9.88;5.32;;;;;;;3.42;100.00;100731.31;4955165;28;20055;-70
2022/12/08 08:36:22;;;;;;;7.13;5.13;;;;;;;3.45;100.00;100721.78;4955532;28;20504;-70
2022/12/08 08:38:49;;;;;;;6.95;5.00;;;;;;;3.45;100.00;100722.66;4955581;28;20036;-70
2022/12/08 08:41:16;;;;;;;8.55;5.43;;;;;;;3.48;99.89;100725.22;4955575;28;20036;-70
2022/12/08 08:43:44;;;;;;;7.40;5.00;;;;;;;3.51;100.00;100729.59;4954702;28;20048;-70
2022/12/08 08:46:11;;;;;;;9.07;5.55;;;;;;;3.52;99.79;100728.69;4955408;28;20043;-70
2022/12/08 08:48:38;;;;;;;8.73;5.65;;;;;;;3.53;100.00;100725.22;4954889;28;20047;-70
2022/12/08 08:51:12;;;;;;;7.50;5.57;;;;;;;3.55;100.00;100734.78;4955151;28;20040;-70
2022/12/08 08:53:41;;;;;;;7.53;5.38;;;;;;;3.58;100.00;100732.16;4955225;28;20505;-70
2022/12/08 08:56:17;;;;;;;8.68;5.93;;;;;;;3.61;100.00;100739.13;4955427;28;20529;-70
2022/12/08 08:58:48;;;;;;;7.90;5.25;;;;;;;3.59;99.12;100740.84;4955122;28;20054;-70
2022/12/08 09:01:19;;;;;;;9.65;6.65;;;;;;;3.55;98.92;100741.72;4954820;28;20071;-70
2022/12/08 09:03:48;;;;;;;10.95;6.38;;;;;;;3.55;99.13;100744.34;4954539;28;20055;-70
2022/12/08 09:06:16;;;;;;;8.45;5.70;;;;;;;3.54;98.97;100748.69;4954200;28;20072;-71
2022/12/08 09:08:46;;;;;;;8.82;5.93;;;;;;;3.55;98.85;100746.94;4955237;28;20508;-70
2022/12/08 09:11:14;;;;;;;11.55;6.63;;;;;;;3.53;99.02;100751.28;4955302;28;20040;-70
2022/12/08 09:13:41;;;;;;;9.88;6.30;;;;;;;3.53;99.12;100746.06;4955165;28;20054;-70
2022/12/08 09:16:10;;;;;;;9.45;6.97;;;;;;;3.53;99.44;100751.28;4954813;28;20050;-69
2022/12/08 09:18:37;;;;;;;11.77;6.68;;;;;;;3.53;99.07;100757.38;4954408;28;20044;-68
2022/12/08 09:21:08;;;;;;;7.68;6.40;;;;;;;3.53;99.32;100751.28;4953755;28;20067;-68
2022/12/08 09:23:35;;;;;;;11.70;6.88;;;;;;;3.53;98.90;100746.97;4954583;28;20040;-69
2022/12/08 09:26:04;;;;;;;7.55;5.70;;;;;;;3.52;99.04;100746.94;4954643;28;20048;-69
2022/12/08 09:28:32;;;;;;;7.78;5.00;;;;;;;3.51;99.09;100740.88;4954825;28;20068;-69
2022/12/08 09:31:00;;;;;;;6.88;4.43;;;;;;;3.54;99.20;100746.09;4953825;28;20059;-69
2022/12/08 09:33:27;;;;;;;6.30;4.35;;;;;;;3.57;99.24;100747.81;4954632;28;20047;-69
2022/12/08 09:35:54;;;;;;;5.32;4.15;;;;;;;3.60;99.36;100750.41;4954010;28;20063;-69
2022/12/08 09:38:21;;;;;;;5.05;3.45;;;;;;;3.62;99.29;100750.41;4954096;28;20066;-69
2022/12/08 09:40:52;;;;;;;3.85;3.08;;;;;;;3.65;99.39;100743.44;4953329;28;20119;-69
2022/12/08 09:43:51;;;;;;;5.40;3.05;;;;;;;3.68;98.75;100747.75;4954014;28;20055;-69
2022/12/08 09:46:19;;;;;;;4.50;3.13;;;;;;;3.67;98.19;100751.25;4954529;28;20101;-69
2022/12/08 09:48:54;;;;;;;5.47;2.90;;;;;;;3.67;98.12;100748.63;4954401;28;20132;-69
2022/12/08 09:51:24;;;;;;;4.70;3.58;;;;;;;3.67;98.55;100751.25;4953037;28;20095;-68
2022/12/08 09:54:01;;;;;;;3.42;2.72;;;;;;;3.69;98.87;100753.00;4954362;28;20055;-69
2022/12/08 09:56:35;;;;;;;5.03;3.20;;;;;;;3.66;98.25;100739.97;4954173;28;20553;-69
2022/12/08 09:59:19;;;;;;;5.47;3.30;;;;;;;3.61;97.30;100741.72;4954063;28;20505;-69
2022/12/08 10:01:46;;;;;;;4.80;3.37;;;;;;;3.60;97.59;100752.13;4954277;28;20032;-69
2022/12/08 10:04:35;;;;;;;4.88;3.20;;;;;;;3.61;97.87;100744.34;4954291;28;20464;-69
2022/12/08 10:07:15;;;;;;;3.63;2.85;;;;;;;3.61;97.11;100751.28;4953287;28;20047;-69
2022/12/08 10:10:17;;;;;;;4.20;2.90;;;;;;;3.61;97.61;100746.06;4954038;28;20040;-69
2022/12/08 10:12:59;;;;;;;5.13;3.20;;;;;;;3.66;98.20;100736.50;4938381;28;20052;-69
2022/12/08 10:15:46;;;;;;;4.55;3.22;;;;;;;3.70;98.15;100739.09;4954255;28;20047;-69
2022/12/08 10:18:27;;;;;;;3.92;2.97;;;;;;;3.72;97.96;100742.53;4953985;28;20099;-69
2022/12/08 10:21:10;;;;;;;3.72;2.83;;;;;;;3.72;98.16;100733.84;4953328;28;20059;-69
2022/12/08 10:23:43;;;;;;;3.50;2.50;;;;;;;3.73;98.29;100728.63;4953242;28;20032;-69
2022/12/08 10:26:17;;;;;;;4.55;2.70;;;;;;;3.78;98.27;100733.81;4953535;28;20048;-69
2022/12/08 10:28:44;;;;;;;5.53;3.45;;;;;;;3.81;98.39;100726.00;4954062;28;20047;-69
2022/12/08 10:31:23;;;;;;;4.82;3.35;;;;;;;3.85;98.33;100724.22;4953914;28;20111;-69
2022/12/08 10:34:09;;;;;;;5.53;3.40;;;;;;;3.86;97.44;100729.47;4953680;28;20043;-69
2022/12/08 10:36:55;;;;;;;4.07;3.00;;;;;;;3.90;97.73;100719.88;4953103;28;20044;-69
2022/12/08 10:39:31;;;;;;;5.30;2.58;;;;;;;3.97;97.87;100726.78;4953905;28;20048;-70
2022/12/08 10:42:13;;;;;;;4.75;2.33;;;;;;;4.04;97.90;100727.63;4953475;28;20047;-69
2022/12/08 10:44:57;;;;;;;5.30;1.88;;;;;;;4.06;97.93;100717.19;4953851;28;20091;-69
2022/12/08 10:47:26;;;;;;;4.47;2.20;;;;;;;4.10;97.90;100711.09;4953723;28;20052;-69
2022/12/08 10:50:26;;;;;;;7.85;1.77;;;;;;;4.14;97.77;100704.94;4953742;28;20512;-69
2022/12/08 10:53:01;;;;;;;6.65;2.10;;;;;;;4.12;97.77;100711.94;4949650;28;20067;-70
2022/12/08 10:55:46;;;;;;;9.57;1.80;;;;;;;4.17;97.82;100712.78;4956756;28;20048;-69
2022/12/08 10:58:23;;;;;;;12.27;1.83;;;;;;;4.14;97.43;100703.22;4956801;28;20135;-70
2022/12/08 11:00:56;;;;;;;12.43;2.40;;;;;;;4.16;97.63;100708.44;4956782;28;20048;-70
2022/12/08 11:03:31;;;;;;;10.00;1.80;;;;;;;4.18;97.63;100715.34;4957279;28;20043;-70
2022/12/08 11:06:08;;;;;;;3.17;1.70;;;;;;;4.18;97.53;100706.69;4955861;28;20079;-71
2022/12/08 11:08:49;;;;;;;6.05;1.55;;;;;;;4.15;96.47;100714.53;4937816;29;20087;-71
2022/12/08 11:11:18;;;;;;;3.28;1.40;;;;;;;4.08;96.53;100708.47;4937610;29;20126;-71
2022/12/08 11:13:53;;;;;;;2.22;1.45;;;;;;;4.07;96.57;100713.69;4943255;28;20067;-71
2022/12/08 11:16:22;;;;;;;3.00;1.60;;;;;;;4.02;96.06;100706.75;4956654;28;20043;-71
2022/12/08 11:18:57;;;;;;;2.50;1.70;;;;;;;4.04;96.47;100705.00;4956418;28;20201;-71
2022/12/08 11:21:35;;;;;;;5.43;2.05;;;;;;;4.08;96.87;100700.63;4955086;28;20151;-70
2022/12/08 11:24:22;;;;;;;3.08;2.38;;;;;;;4.15;96.93;100691.03;4955533;28;20191;-70
2022/12/08 11:27:04;;;;;;;4.38;2.40;;;;;;;4.19;96.84;100692.75;4956208;28;20050;-70
2022/12/08 11:29:34;;;;;;;3.70;2.70;;;;;;;4.18;96.51;100686.66;4955978;28;20076;-71
2022/12/08 11:32:11;;;;;;;4.15;3.38;;;;;;;4.25;96.71;100684.03;4956540;28;20044;-71
2022/12/08 11:34:59;;;;;;;5.45;3.30;;;;;;;4.30;97.11;100679.63;4956256;28;20149;-71
2022/12/08 11:37:42;;;;;;;4.30;3.50;;;;;;;4.34;97.34;100676.13;4955634;28;20557;-70
2022/12/08 11:40:27;;;;;;;5.68;3.75;;;;;;;4.40;97.33;100672.63;4955752;28;20055;-70
2022/12/08 11:43:49;;;;;;;4.82;4.03;;;;;;;4.43;97.26;100670.84;4952790;28;20137;-70
2022/12/08 11:46:26;;;;;;;4.30;3.78;;;;;;;4.45;96.58;100663.88;4950052;28;20171;-71
2022/12/08 11:49:02;;;;;;;5.30;4.18;;;;;;;4.48;96.23;100663.81;4956097;28;20139;-71
2022/12/08 11:52:22;;;;;;;4.20;3.80;;;;;;;4.47;95.72;100667.34;4954590;28;20048;-70
2022/12/08 11:55:20;;;;;;;5.50;4.38;;;;;;;4.36;94.41;100669.16;4945066;28;20052;-70